sensor_id;sensor_type;location;lat;lon;timestamp;pressure;altitude;pressure_sealevel;temperature;humidity
59240;BME280;45010;53.640;10.578;2023-05-16T00:01:33;100558.97;;;26.57;33.79
59240;BME280;45010;53.640;10.578;2023-05-16T00:04:35;100545.00;;;26.50;33.73
59240;BME280;45010;53.640;10.578;2023-05-16T00:07:35;100540.75;;;26.54;33.78
59240;BME280;45010;53.640;10.578;2023-05-16T00:10:36;100549.81;;;26.53;33.83
59240;BME280;45010;53.640;10.578;2023-05-16T00:13:36;100550.88;;;26.52;33.95
59240;BME280;45010;53.640;10.578;2023-05-16T00:16:37;100563.72;;;26.50;34.17
59240;BME280;45010;53.640;10.578;2023-05-16T00:19:40;100556.75;;;26.49;33.92
59240;BME280;45010;53.640;10.578;2023-05-16T00:22:41;100557.75;;;26.42;33.71
59240;BME280;45010;53.640;10.578;2023-05-16T00:25:42;100550.78;;;26.41;34.12
59240;BME280;45010;53.640;10.578;2023-05-16T00:28:42;100556.44;;;26.45;34.24
59240;BME280;45010;53.640;10.578;2023-05-16T00:31:43;100558.53;;;26.43;34.21
59240;BME280;45010;53.640;10.578;2023-05-16T00:34:43;100555.06;;;26.42;34.05
59240;BME280;45010;53.640;10.578;2023-05-16T00:37:43;100557.44;;;26.39;34.07
59240;BME280;45010;53.640;10.578;2023-05-16T00:40:44;100561.97;;;26.38;34.00
59240;BME280;45010;53.640;10.578;2023-05-16T00:43:45;100561.97;;;26.38;33.92
59240;BME280;45010;53.640;10.578;2023-05-16T00:46:46;100558.72;;;26.36;34.01
59240;BME280;45010;53.640;10.578;2023-05-16T00:49:46;100555.97;;;26.31;34.28
59240;BME280;45010;53.640;10.578;2023-05-16T00:52:47;100558.91;;;26.29;33.96
59240;BME280;45010;53.640;10.578;2023-05-16T00:55:47;100570.97;;;26.32;33.93
59240;BME280;45010;53.640;10.578;2023-05-16T00:58:48;100556.63;;;26.21;34.17
59240;BME280;45010;53.640;10.578;2023-05-16T01:01:50;100578.44;;;26.30;33.89
59240;BME280;45010;53.640;10.578;2023-05-16T01:04:50;100587.50;;;26.29;34.44
59240;BME280;45010;53.640;10.578;2023-05-16T01:07:50;100584.84;;;26.29;34.16
59240;BME280;45010;53.640;10.578;2023-05-16T01:14:20;100590.66;;;26.26;34.20
59240;BME280;45010;53.640;10.578;2023-05-16T01:21:04;100586.63;;;26.23;34.13
59240;BME280;45010;53.640;10.578;2023-05-16T01:24:13;100582.47;;;26.15;33.92
59240;BME280;45010;53.640;10.578;2023-05-16T01:27:21;100594.84;;;26.22;34.22
59240;BME280;45010;53.640;10.578;2023-05-16T01:30:23;100597.78;;;26.20;33.96
59240;BME280;45010;53.640;10.578;2023-05-16T01:33:23;100597.78;;;26.20;34.33
59240;BME280;45010;53.640;10.578;2023-05-16T01:36:25;100600.69;;;26.18;34.17
59240;BME280;45010;53.640;10.578;2023-05-16T01:39:40;100599.09;;;26.17;34.14
59240;BME280;45010;53.640;10.578;2023-05-16T01:42:45;100606.28;;;26.17;34.11
59240;BME280;45010;53.640;10.578;2023-05-16T01:46:13;100593.91;;;26.11;34.37
59240;BME280;45010;53.640;10.578;2023-05-16T01:49:25;100599.56;;;26.14;34.18
59240;BME280;45010;53.640;10.578;2023-05-16T01:52:47;100589.84;;;26.08;34.38
59240;BME280;45010;53.640;10.578;2023-05-16T01:55:50;100588.22;;;26.07;34.12
59240;BME280;45010;53.640;10.578;2023-05-16T01:58:52;100600.06;;;26.11;34.01
59240;BME280;45010;53.640;10.578;2023-05-16T02:01:56;100588.47;;;26.05;34.46
59240;BME280;45010;53.640;10.578;2023-05-16T02:04:56;100606.44;;;26.10;34.26
59240;BME280;45010;53.640;10.578;2023-05-16T02:07:58;100602.16;;;26.09;34.27
59240;BME280;45010;53.640;10.578;2023-05-16T02:10:58;100604.03;;;26.09;34.01
59240;BME280;45010;53.640;10.578;2023-05-16T02:13:58;100600.53;;;26.08;34.07
59240;BME280;45010;53.640;10.578;2023-05-16T02:16:59;100589.03;;;26.08;34.34
59240;BME280;45010;53.640;10.578;2023-05-16T02:19:59;100594.63;;;26.06;34.07
59240;BME280;45010;53.640;10.578;2023-05-16T02:23:05;100601.84;;;26.05;34.41
59240;BME280;45010;53.640;10.578;2023-05-16T02:26:06;100610.91;;;26.04;34.20
59240;BME280;45010;53.640;10.578;2023-05-16T02:29:06;100610.09;;;26.04;34.25
59240;BME280;45010;53.640;10.578;2023-05-16T02:32:06;100606.78;;;25.97;34.08
59240;BME280;45010;53.640;10.578;2023-05-16T02:35:07;100613.81;;;26.03;34.38
59240;BME280;45010;53.640;10.578;2023-05-16T02:38:07;100613.81;;;26.03;34.11
59240;BME280;45010;53.640;10.578;2023-05-16T02:41:08;100613.25;;;26.01;34.44
59240;BME280;45010;53.640;10.578;2023-05-16T02:44:08;100606.31;;;26.00;34.18
59240;BME280;45010;53.640;10.578;2023-05-16T02:47:09;100611.06;;;25.98;34.60
59240;BME280;45010;53.640;10.578;2023-05-16T02:50:09;100612.72;;;25.99;34.24
59240;BME280;45010;53.640;10.578;2023-05-16T02:53:09;100616.41;;;25.98;34.33
59240;BME280;45010;53.640;10.578;2023-05-16T02:56:10;100620.13;;;25.97;34.20
59240;BME280;45010;53.640;10.578;2023-05-16T02:59:11;100600.16;;;25.82;34.39
59240;BME280;45010;53.640;10.578;2023-05-16T03:02:11;100615.03;;;25.95;34.15
59240;BME280;45010;53.640;10.578;2023-05-16T03:05:11;100616.81;;;25.89;34.30
59240;BME280;45010;53.640;10.578;2023-05-16T03:08:12;100625.97;;;25.94;34.68
59240;BME280;45010;53.640;10.578;2023-05-16T03:11:16;100636.66;;;25.94;34.26
59240;BME280;45010;53.640;10.578;2023-05-16T03:14:18;100638.50;;;25.93;34.23
59240;BME280;45010;53.640;10.578;2023-05-16T03:17:18;100638.19;;;25.89;34.16
59240;BME280;45010;53.640;10.578;2023-05-16T03:20:18;100647.59;;;25.92;34.28
59240;BME280;45010;53.640;10.578;2023-05-16T03:23:19;100643.44;;;25.84;34.33
59240;BME280;45010;53.640;10.578;2023-05-16T03:26:20;100643.22;;;25.86;34.02
59240;BME280;45010;53.640;10.578;2023-05-16T03:29:21;100652.38;;;25.90;33.96
59240;BME280;45010;53.640;10.578;2023-05-16T03:32:22;100656.91;;;25.89;34.40
59240;BME280;45010;53.640;10.578;2023-05-16T03:35:22;100632.13;;;25.77;34.27
59240;BME280;45010;53.640;10.578;2023-05-16T03:38:23;100657.97;;;25.88;34.11
59240;BME280;45010;53.640;10.578;2023-05-16T03:41:24;100659.00;;;25.87;34.11
59240;BME280;45010;53.640;10.578;2023-05-16T03:44:25;100661.69;;;25.87;34.04
59240;BME280;45010;53.640;10.578;2023-05-16T03:47:25;100662.72;;;25.86;34.10
59240;BME280;45010;53.640;10.578;2023-05-16T03:50:29;100664.34;;;25.87;34.44
59240;BME280;45010;53.640;10.578;2023-05-16T03:53:29;100661.09;;;25.85;34.12
59240;BME280;45010;53.640;10.578;2023-05-16T03:56:30;100661.09;;;25.85;34.17
59240;BME280;45010;53.640;10.578;2023-05-16T03:59:30;100641.66;;;25.73;34.22
59240;BME280;45010;53.640;10.578;2023-05-16T04:02:31;100668.56;;;25.83;34.18
59240;BME280;45010;53.640;10.578;2023-05-16T04:05:31;100668.56;;;25.83;34.17
59240;BME280;45010;53.640;10.578;2023-05-16T04:08:31;100663.22;;;25.83;34.13
59240;BME280;45010;53.640;10.578;2023-05-16T04:11:32;100672.28;;;25.82;34.06
59240;BME280;45010;53.640;10.578;2023-05-16T04:14:34;100669.50;;;25.77;34.28
59240;BME280;45010;53.640;10.578;2023-05-16T04:17:34;100685.03;;;25.80;34.45
59240;BME280;45010;53.640;10.578;2023-05-16T04:20:35;100690.38;;;25.80;34.40
59240;BME280;45010;53.640;10.578;2023-05-16T04:23:36;100667.25;;;25.69;34.23
59240;BME280;45010;53.640;10.578;2023-05-16T04:26:36;100695.72;;;25.80;34.14
59240;BME280;45010;53.640;10.578;2023-05-16T04:29:36;100699.47;;;25.79;34.27
59240;BME280;45010;53.640;10.578;2023-05-16T04:32:36;100697.84;;;25.78;34.18
59240;BME280;45010;53.640;10.578;2023-05-16T04:35:37;100708.53;;;25.78;34.29
59240;BME280;45010;53.640;10.578;2023-05-16T04:38:37;100717.59;;;25.77;34.21
59240;BME280;45010;53.640;10.578;2023-05-16T04:41:38;100717.59;;;25.77;34.36
59240;BME280;45010;53.640;10.578;2023-05-16T04:44:38;100714.94;;;25.77;34.21
59240;BME280;45010;53.640;10.578;2023-05-16T04:47:38;100721.31;;;25.76;34.06
59240;BME280;45010;53.640;10.578;2023-05-16T04:50:40;100720.28;;;25.77;34.26
59240;BME280;45010;53.640;10.578;2023-05-16T04:53:40;100724.00;;;25.76;34.16
59240;BME280;45010;53.640;10.578;2023-05-16T04:56:40;100719.72;;;25.75;34.27
59240;BME280;45010;53.640;10.578;2023-05-16T04:59:41;100731.19;;;25.75;34.47
59240;BME280;45010;53.640;10.578;2023-05-16T05:02:41;100725.06;;;25.75;34.42
59240;BME280;45010;53.640;10.578;2023-05-16T05:05:43;100695.84;;;25.56;34.37
59240;BME280;45010;53.640;10.578;2023-05-16T05:08:43;100726.06;;;25.74;34.36
59240;BME280;45010;53.640;10.578;2023-05-16T05:11:43;100734.09;;;25.74;34.24
59240;BME280;45010;53.640;10.578;2023-05-16T05:14:44;100732.47;;;25.73;34.34
59240;BME280;45010;53.640;10.578;2023-05-16T05:17:44;100731.69;;;25.72;34.20
59240;BME280;45010;53.640;10.578;2023-05-16T05:20:45;100743.16;;;25.73;34.37
59240;BME280;45010;53.640;10.578;2023-05-16T05:23:45;100736.19;;;25.72;34.24
59240;BME280;45010;53.640;10.578;2023-05-16T05:26:46;100736.19;;;25.72;34.45
59240;BME280;45010;53.640;10.578;2023-05-16T05:29:46;100737.81;;;25.73;34.25
59240;BME280;45010;53.640;10.578;2023-05-16T05:32:46;100742.03;;;25.69;34.47
59240;BME280;45010;53.640;10.578;2023-05-16T05:35:47;100745.25;;;25.71;34.49
59240;BME280;45010;53.640;10.578;2023-05-16T05:38:47;100739.09;;;25.70;34.14
59240;BME280;45010;53.640;10.578;2023-05-16T05:41:47;100741.53;;;25.72;34.24
59240;BME280;45010;53.640;10.578;2023-05-16T05:44:48;100743.16;;;25.73;34.40
59240;BME280;45010;53.640;10.578;2023-05-16T05:47:48;100754.91;;;25.72;34.29
59240;BME280;45010;53.640;10.578;2023-05-16T05:50:48;100762.91;;;25.72;34.45
59240;BME280;45010;53.640;10.578;2023-05-16T05:53:49;100751.56;;;25.64;34.59
59240;BME280;45010;53.640;10.578;2023-05-16T05:56:49;100762.91;;;25.72;34.48
59240;BME280;45010;53.640;10.578;2023-05-16T05:59:49;100762.91;;;25.72;34.61
59240;BME280;45010;53.640;10.578;2023-05-16T06:02:50;100768.25;;;25.72;34.56
59240;BME280;45010;53.640;10.578;2023-05-16T06:05:50;100770.91;;;25.72;34.50
59240;BME280;45010;53.640;10.578;2023-05-16T06:08:51;100777.31;;;25.71;34.60
59240;BME280;45010;53.640;10.578;2023-05-16T06:11:51;100780.78;;;25.71;34.14
59240;BME280;45010;53.640;10.578;2023-05-16T06:14:51;100782.66;;;25.71;34.46
59240;BME280;45010;53.640;10.578;2023-05-16T06:17:52;100781.84;;;25.70;34.62
59240;BME280;45010;53.640;10.578;2023-05-16T06:20:52;100777.31;;;25.71;34.42
59240;BME280;45010;53.640;10.578;2023-05-16T06:23:53;100782.66;;;25.71;34.70
59240;BME280;45010;53.640;10.578;2023-05-16T06:26:53;100788.00;;;25.71;35.10
59240;BME280;45010;53.640;10.578;2023-05-16T06:29:54;100794.41;;;25.70;34.97
59240;BME280;45010;53.640;10.578;2023-05-16T06:32:54;100791.72;;;25.70;35.25
59240;BME280;45010;53.640;10.578;2023-05-16T06:35:54;100793.34;;;25.71;35.27
59240;BME280;45010;53.640;10.578;2023-05-16T06:38:54;100805.66;;;25.72;35.32
59240;BME280;45010;53.640;10.578;2023-05-16T06:41:55;100798.19;;;25.74;35.30
59240;BME280;45010;53.640;10.578;2023-05-16T06:44:55;100811.31;;;25.75;35.46
59240;BME280;45010;53.640;10.578;2023-05-16T06:47:55;100812.72;;;25.78;35.21
59240;BME280;45010;53.640;10.578;2023-05-16T06:50:56;100814.09;;;25.81;35.07
59240;BME280;45010;53.640;10.578;2023-05-16T06:53:56;100817.34;;;25.83;35.08
59240;BME280;45010;53.640;10.578;2023-05-16T06:56:57;100822.22;;;25.86;34.89
59240;BME280;45010;53.640;10.578;2023-05-16T06:59:57;100825.44;;;25.88;34.70
59240;BME280;45010;53.640;10.578;2023-05-16T07:02:57;100834.84;;;25.90;34.87
59240;BME280;45010;53.640;10.578;2023-05-16T07:05:57;100823.59;;;25.88;34.78
59240;BME280;45010;53.640;10.578;2023-05-16T07:08:58;100829.63;;;25.96;34.48
59240;BME280;45010;53.640;10.578;2023-05-16T07:11:58;100833.69;;;25.98;34.54
59240;BME280;45010;53.640;10.578;2023-05-16T07:14:58;100828.00;;;25.95;34.85
59240;BME280;45010;53.640;10.578;2023-05-16T07:17:59;100840.97;;;26.03;34.69
59240;BME280;45010;53.640;10.578;2023-05-16T07:20:59;100843.19;;;26.06;34.42
59240;BME280;45010;53.640;10.578;2023-05-16T07:24:00;100841.91;;;26.09;34.45
59240;BME280;45010;53.640;10.578;2023-05-16T07:27:00;100848.63;;;26.11;34.52
59240;BME280;45010;53.640;10.578;2023-05-16T07:30:01;100849.19;;;26.13;34.43
59240;BME280;45010;53.640;10.578;2023-05-16T07:33:01;100847.09;;;26.15;34.29
59240;BME280;45010;53.640;10.578;2023-05-16T07:36:02;100849.53;;;26.17;33.92
59240;BME280;45010;53.640;10.578;2023-05-16T07:39:02;100854.63;;;26.18;34.17
59240;BME280;45010;53.640;10.578;2023-05-16T07:42:03;100849.84;;;26.21;34.14
59240;BME280;45010;53.640;10.578;2023-05-16T07:45:04;100855.78;;;26.23;34.02
59240;BME280;45010;53.640;10.578;2023-05-16T07:48:06;100832.00;;;26.09;33.87
59240;BME280;45010;53.640;10.578;2023-05-16T07:51:06;100856.38;;;26.25;33.77
59240;BME280;45010;53.640;10.578;2023-05-16T07:54:06;100850.81;;;26.26;33.78
59240;BME280;45010;53.640;10.578;2023-05-16T07:57:07;100848.94;;;26.27;34.01
59240;BME280;45010;53.640;10.578;2023-05-16T08:00:07;100858.56;;;26.28;34.01
59240;BME280;45010;53.640;10.578;2023-05-16T08:03:08;100868.22;;;26.29;34.14
59240;BME280;45010;53.640;10.578;2023-05-16T08:06:08;100866.13;;;26.31;33.79
59240;BME280;45010;53.640;10.578;2023-05-16T08:09:09;100858.66;;;26.33;33.85
59240;BME280;45010;53.640;10.578;2023-05-16T08:12:10;100816.91;;;26.03;33.83
59240;BME280;45010;53.640;10.578;2023-05-16T08:15:10;100870.50;;;26.37;33.94
59240;BME280;45010;53.640;10.578;2023-05-16T08:18:12;100864.00;;;26.33;33.88
59240;BME280;45010;53.640;10.578;2023-05-16T08:21:16;100876.41;;;26.39;34.00
59240;BME280;45010;53.640;10.578;2023-05-16T08:24:16;100877.00;;;26.41;33.85
59240;BME280;45010;53.640;10.578;2023-05-16T08:27:17;100878.63;;;26.42;33.97
59240;BME280;45010;53.640;10.578;2023-05-16T08:30:17;100876.50;;;26.44;34.00
59240;BME280;45010;53.640;10.578;2023-05-16T08:33:18;100859.19;;;26.47;33.68
59240;BME280;45010;53.640;10.578;2023-05-16T08:36:18;100860.00;;;26.48;33.63
59240;BME280;45010;53.640;10.578;2023-05-16T08:39:19;100863.47;;;26.48;33.59
59240;BME280;45010;53.640;10.578;2023-05-16T08:42:19;100857.88;;;26.50;33.41
59240;BME280;45010;53.640;10.578;2023-05-16T08:45:21;100855.13;;;26.44;33.71
59240;BME280;45010;53.640;10.578;2023-05-16T08:48:23;100867.53;;;26.51;33.64
59240;BME280;45010;53.640;10.578;2023-05-16T08:51:24;100866.47;;;26.52;33.41
59240;BME280;45010;53.640;10.578;2023-05-16T08:54:25;100860.06;;;26.53;33.07
59240;BME280;45010;53.640;10.578;2023-05-16T08:57:26;100838.41;;;26.37;33.30
59240;BME280;45010;53.640;10.578;2023-05-16T09:00:27;100851.06;;;26.42;33.01
59240;BME280;45010;53.640;10.578;2023-05-16T09:03:28;100869.75;;;26.54;33.23
59240;BME280;45010;53.640;10.578;2023-05-16T09:06:29;100864.38;;;26.54;33.12
59240;BME280;45010;53.640;10.578;2023-05-16T09:09:30;100855.31;;;26.55;33.32
59240;BME280;45010;53.640;10.578;2023-05-16T09:12:30;100867.63;;;26.56;32.74
59240;BME280;45010;53.640;10.578;2023-05-16T09:15:31;100862.19;;;26.51;33.20
59240;BME280;45010;53.640;10.578;2023-05-16T09:18:32;100871.91;;;26.57;32.94
59240;BME280;45010;53.640;10.578;2023-05-16T09:21:33;100871.13;;;26.56;32.90
59240;BME280;45010;53.640;10.578;2023-05-16T09:24:37;100875.41;;;26.57;32.66
59240;BME280;45010;53.640;10.578;2023-05-16T09:27:39;100876.22;;;26.58;33.00
59240;BME280;45010;53.640;10.578;2023-05-16T09:30:40;100871.69;;;26.58;32.85
59240;BME280;45010;53.640;10.578;2023-05-16T09:33:41;100869.00;;;26.58;32.80
59240;BME280;45010;53.640;10.578;2023-05-16T09:36:42;100872.50;;;26.59;32.73
59240;BME280;45010;53.640;10.578;2023-05-16T09:39:50;100864.38;;;26.54;32.39
59240;BME280;45010;53.640;10.578;2023-05-16T09:43:02;100868.78;;;26.60;32.44
59240;BME280;45010;53.640;10.578;2023-05-16T09:46:03;100874.13;;;26.60;32.82
59240;BME280;45010;53.640;10.578;2023-05-16T09:49:04;100863.88;;;26.57;32.66
59240;BME280;45010;53.640;10.578;2023-05-16T09:52:05;100873.06;;;26.61;32.85
59240;BME280;45010;53.640;10.578;2023-05-16T09:55:07;100872.50;;;26.59;32.51
59240;BME280;45010;53.640;10.578;2023-05-16T09:58:07;100883.19;;;26.59;32.65
59240;BME280;45010;53.640;10.578;2023-05-16T10:01:09;100879.47;;;26.60;32.38
59240;BME280;45010;53.640;10.578;2023-05-16T10:04:09;100886.44;;;26.61;32.21
59240;BME280;45010;53.640;10.578;2023-05-16T10:07:13;100879.22;;;26.62;32.68
59240;BME280;45010;53.640;10.578;2023-05-16T10:10:14;100838.28;;;26.44;32.58
59240;BME280;45010;53.640;10.578;2023-05-16T10:13:16;100870.72;;;26.65;32.75
59240;BME280;45010;53.640;10.578;2023-05-16T10:16:20;100869.91;;;26.64;32.21
59240;BME280;45010;53.640;10.578;2023-05-16T10:19:23;100860.25;;;26.63;32.07
59240;BME280;45010;53.640;10.578;2023-05-16T10:22:25;100864.53;;;26.64;32.31
59240;BME280;45010;53.640;10.578;2023-05-16T10:25:40;100858.63;;;26.62;31.56
59240;BME280;45010;53.640;10.578;2023-05-16T10:28:41;100851.47;;;26.51;31.51
59240;BME280;45010;53.640;10.578;2023-05-16T10:31:42;100860.00;;;26.65;31.24
59240;BME280;45010;53.640;10.578;2023-05-16T10:34:42;100867.81;;;26.66;30.81
59240;BME280;45010;53.640;10.578;2023-05-16T10:37:43;100871.53;;;26.65;30.97
59240;BME280;45010;53.640;10.578;2023-05-16T10:40:44;100854.34;;;26.61;30.85
59240;BME280;45010;53.640;10.578;2023-05-16T10:43:55;100846.56;;;26.59;30.65
59240;BME280;45010;53.640;10.578;2023-05-16T10:46:57;100856.28;;;26.66;30.05
59240;BME280;45010;53.640;10.578;2023-05-16T10:49:58;100861.63;;;26.66;30.24
59240;BME280;45010;53.640;10.578;2023-05-16T10:53:18;100866.19;;;26.65;29.15
59240;BME280;45010;53.640;10.578;2023-05-16T10:56:24;100855.31;;;26.55;28.88
59240;BME280;45010;53.640;10.578;2023-05-16T10:59:25;100860.47;;;26.62;28.60
59240;BME280;45010;53.640;10.578;2023-05-16T11:02:28;100855.31;;;26.55;28.27
59240;BME280;45010;53.640;10.578;2023-05-16T11:05:29;100872.50;;;26.59;27.75
59240;BME280;45010;53.640;10.578;2023-05-16T11:08:29;100878.66;;;26.59;27.83
59240;BME280;45010;53.640;10.578;2023-05-16T11:14:50;100869.75;;;26.54;27.12
59240;BME280;45010;53.640;10.578;2023-05-16T11:18:14;100888.56;;;26.59;26.75
59240;BME280;45010;53.640;10.578;2023-05-16T11:21:15;100887.97;;;26.57;26.92
59240;BME280;45010;53.640;10.578;2023-05-16T11:24:29;100879.63;;;26.53;26.46
59240;BME280;45010;53.640;10.578;2023-05-16T11:27:42;100870.28;;;26.56;26.67
59240;BME280;45010;53.640;10.578;2023-05-16T11:30:44;100881.56;;;26.58;26.94
59240;BME280;45010;53.640;10.578;2023-05-16T11:33:45;100887.72;;;26.58;26.55
59240;BME280;45010;53.640;10.578;2023-05-16T11:36:47;100896.81;;;26.57;27.04
59240;BME280;45010;53.640;10.578;2023-05-16T11:39:48;100892.97;;;26.53;26.86
59240;BME280;45010;53.640;10.578;2023-05-16T11:42:48;100896.00;;;26.57;27.23
59240;BME280;45010;53.640;10.578;2023-05-16T11:45:53;100896.94;;;26.51;27.38
59240;BME280;45010;53.640;10.578;2023-05-16T11:48:54;100900.78;;;26.55;27.45
59240;BME280;45010;53.640;10.578;2023-05-16T11:51:54;100901.34;;;26.57;27.62
59240;BME280;45010;53.640;10.578;2023-05-16T11:54:56;100902.97;;;26.58;27.54
59240;BME280;45010;53.640;10.578;2023-05-16T11:58:00;100908.31;;;26.58;27.92
59240;BME280;45010;53.640;10.578;2023-05-16T12:01:03;100899.25;;;26.59;27.92
59240;BME280;45010;53.640;10.578;2023-05-16T12:04:14;100898.34;;;26.53;28.22
59240;BME280;45010;53.640;10.578;2023-05-16T12:07:14;100907.66;;;26.68;27.63
59240;BME280;45010;53.640;10.578;2023-05-16T12:10:15;100905.06;;;26.56;27.85
59240;BME280;45010;53.640;10.578;2023-05-16T12:13:17;100904.59;;;26.59;28.19
59240;BME280;45010;53.640;10.578;2023-05-16T12:16:18;100903.44;;;26.55;28.36
59240;BME280;45010;53.640;10.578;2023-05-16T12:19:18;100906.78;;;26.62;28.22
59240;BME280;45010;53.640;10.578;2023-05-16T12:22:19;100912.69;;;26.64;27.93
59240;BME280;45010;53.640;10.578;2023-05-16T12:25:29;100910.59;;;26.66;28.01
59240;BME280;45010;53.640;10.578;2023-05-16T12:28:31;100907.84;;;26.61;28.05
59240;BME280;45010;53.640;10.578;2023-05-16T12:31:39;100916.75;;;26.67;28.37
59240;BME280;45010;53.640;10.578;2023-05-16T12:34:48;100909.31;;;26.69;28.83
59240;BME280;45010;53.640;10.578;2023-05-16T12:37:49;100897.50;;;26.53;28.99
59240;BME280;45010;53.640;10.578;2023-05-16T12:40:56;100917.81;;;26.66;28.74
59240;BME280;45010;53.640;10.578;2023-05-16T12:44:13;100935.56;;;26.72;28.99
59240;BME280;45010;53.640;10.578;2023-05-16T12:47:16;100941.75;;;26.72;28.95
59240;BME280;45010;53.640;10.578;2023-05-16T12:50:16;100940.94;;;26.72;29.18
59240;BME280;45010;53.640;10.578;2023-05-16T12:53:17;100940.03;;;26.66;29.36
59240;BME280;45010;53.640;10.578;2023-05-16T12:56:18;100952.91;;;26.69;29.39
59240;BME280;45010;53.640;10.578;2023-05-16T12:59:18;100957.81;;;26.72;29.46
59240;BME280;45010;53.640;10.578;2023-05-16T13:02:19;100965.56;;;26.74;29.40
59240;BME280;45010;53.640;10.578;2023-05-16T13:05:21;100965.84;;;26.72;29.74
59240;BME280;45010;53.640;10.578;2023-05-16T13:08:22;100964.53;;;26.75;29.50
59240;BME280;45010;53.640;10.578;2023-05-16T13:11:23;100968.00;;;26.76;29.81
59240;BME280;45010;53.640;10.578;2023-05-16T13:14:24;100971.28;;;26.78;29.58
59240;BME280;45010;53.640;10.578;2023-05-16T13:17:24;100976.63;;;26.78;29.74
59240;BME280;45010;53.640;10.578;2023-05-16T13:20:24;100979.31;;;26.78;29.67
59240;BME280;45010;53.640;10.578;2023-05-16T13:23:25;100993.25;;;26.80;29.86
59240;BME280;45010;53.640;10.578;2023-05-16T13:26:26;100979.22;;;26.72;29.91
59240;BME280;45010;53.640;10.578;2023-05-16T13:29:26;100992.75;;;26.83;30.18
59240;BME280;45010;53.640;10.578;2023-05-16T13:32:27;100994.41;;;26.84;30.15
59240;BME280;45010;53.640;10.578;2023-05-16T13:35:27;100991.72;;;26.84;30.20
59240;BME280;45010;53.640;10.578;2023-05-16T13:38:27;101002.44;;;26.84;30.46
59240;BME280;45010;53.640;10.578;2023-05-16T13:41:28;101012.63;;;26.87;30.21
59240;BME280;45010;53.640;10.578;2023-05-16T13:44:28;101000.88;;;26.88;30.39
59240;BME280;45010;53.640;10.578;2023-05-16T13:47:28;100999.25;;;26.87;30.27
59240;BME280;45010;53.640;10.578;2023-05-16T13:50:29;100993.66;;;26.89;30.39
59240;BME280;45010;53.640;10.578;2023-05-16T13:53:29;101005.16;;;26.89;30.73
59240;BME280;45010;53.640;10.578;2023-05-16T13:56:30;101005.16;;;26.89;30.34
59240;BME280;45010;53.640;10.578;2023-05-16T13:59:30;100990.75;;;26.90;30.62
59240;BME280;45010;53.640;10.578;2023-05-16T14:02:30;100981.72;;;26.91;30.37
59240;BME280;45010;53.640;10.578;2023-05-16T14:05:31;100983.31;;;26.92;30.57
59240;BME280;45010;53.640;10.578;2023-05-16T14:08:31;100991.34;;;26.92;30.24
59240;BME280;45010;53.640;10.578;2023-05-16T14:11:32;100988.22;;;26.95;30.42
59240;BME280;45010;53.640;10.578;2023-05-16T14:14:33;100988.22;;;26.95;30.84
59240;BME280;45010;53.640;10.578;2023-05-16T14:17:33;100973.78;;;26.96;30.68
59240;BME280;45010;53.640;10.578;2023-05-16T14:20:34;100973.78;;;26.96;30.97
59240;BME280;45010;53.640;10.578;2023-05-16T14:23:34;100980.75;;;26.97;30.54
59240;BME280;45010;53.640;10.578;2023-05-16T14:26:35;100982.34;;;26.98;30.70
59240;BME280;45010;53.640;10.578;2023-05-16T14:29:35;100985.03;;;26.98;30.69
59240;BME280;45010;53.640;10.578;2023-05-16T14:32:36;100989.34;;;26.99;30.60
59240;BME280;45010;53.640;10.578;2023-05-16T14:35:36;100988.88;;;27.03;30.61
59240;BME280;45010;53.640;10.578;2023-05-16T14:38:40;101006.53;;;27.04;30.61
59240;BME280;45010;53.640;10.578;2023-05-16T14:41:40;101001.97;;;27.04;30.94
59240;BME280;45010;53.640;10.578;2023-05-16T14:44:41;101006.53;;;27.04;30.95
59240;BME280;45010;53.640;10.578;2023-05-16T14:47:41;101006.53;;;27.04;30.61
59240;BME280;45010;53.640;10.578;2023-05-16T14:50:41;101010.00;;;27.04;30.72
59240;BME280;45010;53.640;10.578;2023-05-16T14:53:42;100997.59;;;26.98;31.08
59240;BME280;45010;53.640;10.578;2023-05-16T14:56:43;101030.63;;;27.04;31.19
59240;BME280;45010;53.640;10.578;2023-05-16T14:59:43;101028.75;;;27.04;30.98
59240;BME280;45010;53.640;10.578;2023-05-16T15:02:44;101042.41;;;27.03;30.93
59240;BME280;45010;53.640;10.578;2023-05-16T15:05:44;101039.13;;;27.01;30.65
59240;BME280;45010;53.640;10.578;2023-05-16T15:08:44;101046.13;;;27.02;30.83
59240;BME280;45010;53.640;10.578;2023-05-16T15:11:45;101036.22;;;27.02;31.22
59240;BME280;45010;53.640;10.578;2023-05-16T15:14:45;101022.28;;;27.00;30.71
59240;BME280;45010;53.640;10.578;2023-05-16T15:17:45;101030.06;;;27.02;30.90
59240;BME280;45010;53.640;10.578;2023-05-16T15:20:46;101026.91;;;27.05;30.83
59240;BME280;45010;53.640;10.578;2023-05-16T15:23:46;101021.53;;;27.05;31.21
59240;BME280;45010;53.640;10.578;2023-05-16T15:26:47;101025.06;;;27.05;30.95
59240;BME280;45010;53.640;10.578;2023-05-16T15:29:48;101018.41;;;27.08;30.84
59240;BME280;45010;53.640;10.578;2023-05-16T15:32:48;101024.56;;;27.08;30.75
59240;BME280;45010;53.640;10.578;2023-05-16T15:35:48;101036.09;;;27.09;30.86
59240;BME280;45010;53.640;10.578;2023-05-16T15:38:49;101037.69;;;27.10;30.96
59240;BME280;45010;53.640;10.578;2023-05-16T15:41:49;101029.44;;;27.11;30.82
59240;BME280;45010;53.640;10.578;2023-05-16T15:44:49;101029.44;;;27.11;30.71
59240;BME280;45010;53.640;10.578;2023-05-16T15:47:50;101034.78;;;27.11;30.75